Time;durP1;ratioP1;P1;durP2;ratioP2;P2;SDS_P1;SDS_P2;PMS_P1;PMS_P2;Temp;Humidity;BMP_temperature;BMP_pressure;BME280_temperature;BME280_humidity;BME280_pressure;Samples;Min_cycle;Max_cycle;Signal;HPM_P1;HPM_P2
2022/01/04 00:01:50;;;;;;;2.70;1.90;;;14.40;79.30;;;-142.21;100.00;112049.66;4915234;29;20446;-77
2022/01/04 00:04:19;;;;;;;3.27;1.80;;;14.40;79.30;;;-142.21;100.00;112049.66;4953002;28;20949;-78
2022/01/04 00:06:46;;;;;;;3.50;1.90;;;14.40;79.40;;;-142.21;100.00;112049.66;4975021;28;20460;-78
2022/01/04 00:09:14;;;;;;;1.70;1.60;;;14.40;79.70;;;-142.21;100.00;112049.66;4974564;28;20479;-78
2022/01/04 00:11:59;;;;;;;2.70;1.70;;;14.30;79.60;;;-142.21;100.00;112049.66;4974629;28;20788;-78
2022/01/04 00:14:25;;;;;;;2.10;1.53;;;14.30;79.50;;;-142.21;100.00;112049.66;4974616;28;20502;-79
2022/01/04 00:16:55;;;;;;;1.83;1.70;;;14.30;80.10;;;-142.21;100.00;112049.66;4974487;28;20459;-80
2022/01/04 00:19:24;;;;;;;2.30;1.70;;;14.40;80.00;;;-142.21;100.00;112049.66;4974896;28;20451;-82
2022/01/04 00:21:52;;;;;;;2.60;1.77;;;14.40;80.00;;;-142.21;100.00;112049.66;4974580;28;20452;-79
2022/01/04 00:24:19;;;;;;;4.43;1.67;;;14.40;80.00;;;-142.21;100.00;112049.66;4974268;28;20499;-79
2022/01/04 00:26:46;;;;;;;2.60;1.63;;;14.40;79.90;;;-142.21;100.00;112049.66;4966997;28;20554;-82
2022/01/04 00:29:14;;;;;;;2.50;1.70;;;14.40;79.80;;;-142.21;100.00;112049.66;4975645;28;20478;-78
2022/01/04 00:31:41;;;;;;;2.50;1.70;;;14.30;79.90;;;-142.21;100.00;112049.66;4994216;28;20880;-79
2022/01/04 00:34:08;;;;;;;2.00;1.80;;;14.30;79.70;;;-142.21;100.00;112049.66;4993875;28;20537;-80
2022/01/04 00:36:37;;;;;;;2.80;1.90;;;14.30;79.90;;;-142.21;100.00;112049.66;4993503;28;20470;-80
2022/01/04 00:39:04;;;;;;;2.77;1.90;;;14.30;80.10;;;-142.21;100.00;112049.66;4993445;28;20983;-78
2022/01/04 00:41:32;;;;;;;2.57;1.70;;;14.30;79.70;;;-142.21;100.00;112049.66;4993355;28;20439;-79
2022/01/04 00:43:59;;;;;;;3.00;1.63;;;14.30;80.10;;;-142.21;100.00;112049.66;5007349;28;20458;-78
2022/01/04 00:46:26;;;;;;;2.30;1.70;;;14.30;80.20;;;-142.21;100.00;112049.66;5012656;28;20462;-78
2022/01/04 00:49:11;;;;;;;3.37;1.70;;;14.40;80.20;;;-142.21;100.00;112049.66;5016300;28;20545;-80
2022/01/04 00:51:44;;;;;;;2.17;1.57;;;14.30;79.90;;;-142.21;100.00;112049.66;5017928;28;20464;-79
2022/01/04 00:54:13;;;;;;;3.43;1.73;;;14.30;80.40;;;-142.21;100.00;112049.66;5017895;28;20455;-81
2022/01/04 00:56:42;;;;;;;2.27;1.93;;;14.20;80.70;;;-142.21;100.00;112049.66;5006900;28;20559;-81
2022/01/04 00:59:10;;;;;;;2.70;1.90;;;14.20;80.70;;;-142.21;100.00;112049.66;4997288;28;20490;-80
2022/01/04 01:01:39;;;;;;;3.10;2.00;;;14.20;80.50;;;-142.21;100.00;112049.66;4997582;28;20534;-80
2022/01/04 01:04:07;;;;;;;2.23;1.50;;;14.30;80.20;;;-142.21;100.00;112049.66;4998003;28;20483;-82
2022/01/04 01:06:35;;;;;;;1.93;1.70;;;14.30;80.50;;;-142.21;100.00;112049.66;4997599;28;20463;-82
2022/01/04 01:09:05;;;;;;;2.00;1.63;;;14.30;80.10;;;-142.21;100.00;112049.66;4997597;28;20534;-81
2022/01/04 01:11:32;;;;;;;2.40;1.70;;;14.30;79.90;;;-142.21;100.00;112049.66;4997568;28;20795;-80
2022/01/04 01:14:00;;;;;;;2.70;1.87;;;14.30;79.80;;;-142.21;100.00;112049.66;4997277;28;20478;-80
2022/01/04 01:16:27;;;;;;;2.70;2.03;;;14.20;80.10;;;-142.21;100.00;112049.66;4997036;28;20542;-81
2022/01/04 01:18:54;;;;;;;2.90;1.87;;;14.30;80.50;;;-142.21;100.00;112049.66;4996763;28;20509;-80
2022/01/04 01:21:22;;;;;;;2.73;1.80;;;14.20;80.60;;;-142.21;100.00;112049.66;4984777;28;20511;-81
2022/01/04 01:23:50;;;;;;;3.00;1.73;;;14.20;80.70;;;-142.21;100.00;112049.66;4977652;28;20563;-81
2022/01/04 01:26:18;;;;;;;2.17;1.60;;;14.20;81.10;;;-142.21;100.00;112049.66;4978220;28;20554;-80
2022/01/04 01:28:46;;;;;;;2.53;1.80;;;14.20;81.30;;;-142.21;100.00;112049.66;4977930;28;20472;-81
2022/01/04 01:31:14;;;;;;;1.70;1.60;;;14.20;81.10;;;-142.21;100.00;112049.66;4977615;28;20856;-80
2022/01/04 01:33:42;;;;;;;2.37;1.87;;;14.30;80.80;;;-142.21;100.00;112049.66;4978063;28;20482;-80
2022/01/04 01:36:09;;;;;;;2.50;1.90;;;14.40;80.70;;;-142.21;100.00;112049.66;4977718;28;20503;-83
2022/01/04 01:38:37;;;;;;;2.30;2.00;;;14.40;80.80;;;-142.21;100.00;112049.66;4977611;28;20538;-82
2022/01/04 01:41:04;;;;;;;2.23;1.70;;;14.30;80.80;;;-142.21;100.00;112049.66;4996593;28;20447;-80
2022/01/04 01:43:33;;;;;;;2.77;1.70;;;14.30;80.70;;;-142.21;100.00;112049.66;5005038;28;20585;-84
2022/01/04 01:46:01;;;;;;;3.40;1.80;;;14.30;80.80;;;-142.21;100.00;112049.66;4997065;28;20999;-79
2022/01/04 01:48:29;;;;;;;2.70;2.10;;;14.30;81.00;;;-142.21;100.00;112049.66;4996637;28;20451;-80
2022/01/04 01:50:56;;;;;;;2.67;1.80;;;14.30;80.50;;;-142.21;100.00;112049.66;4997098;28;20955;-80
2022/01/04 01:53:24;;;;;;;3.17;1.77;;;14.30;80.50;;;-142.21;100.00;112049.66;4996859;28;20486;-80
2022/01/04 01:55:51;;;;;;;2.90;1.97;;;14.30;80.20;;;-142.21;100.00;112049.66;4997088;28;20471;-81
2022/01/04 01:58:19;;;;;;;3.20;1.80;;;14.30;80.20;;;-142.21;100.00;112049.66;4996875;28;20510;-81
2022/01/04 02:00:47;;;;;;;2.63;1.77;;;14.40;80.10;;;-142.21;100.00;112049.66;4995646;28;20475;-79
2022/01/04 02:03:15;;;;;;;3.73;1.80;;;14.40;80.30;;;-142.21;100.00;112049.66;4996603;28;20474;-80
2022/01/04 02:05:42;;;;;;;2.53;1.80;;;14.30;80.20;;;-142.21;100.00;112049.66;4996442;28;20877;-81
2022/01/04 02:08:13;;;;;;;3.93;2.10;;;14.40;80.20;;;-142.21;100.00;112049.66;4983786;28;20868;-81
2022/01/04 02:10:41;;;;;;;3.43;1.87;;;14.30;81.30;;;-142.21;100.00;112049.66;4977921;28;20471;-80
2022/01/04 02:13:08;;;;;;;2.40;1.93;;;14.30;80.60;;;-142.21;100.00;112049.66;4977067;28;20472;-82
2022/01/04 02:15:36;;;;;;;3.07;1.80;;;14.30;80.80;;;-142.21;100.00;112049.66;4977825;28;20547;-81
2022/01/04 02:18:06;;;;;;;2.13;1.53;;;14.30;81.00;;;-142.21;100.00;112049.66;4976998;28;20575;-82
2022/01/04 02:20:34;;;;;;;2.27;1.80;;;14.40;81.10;;;-142.21;100.00;112049.66;4991794;28;20482;-78
2022/01/04 02:23:01;;;;;;;3.07;2.00;;;14.40;80.60;;;-142.21;100.00;112049.66;4996332;28;20546;-79
2022/01/04 02:25:29;;;;;;;3.63;1.90;;;14.40;80.80;;;-142.21;100.00;112049.66;4996130;28;20459;-80
2022/01/04 02:27:57;;;;;;;2.30;1.80;;;14.30;81.40;;;-142.21;100.00;112049.66;4995842;28;20808;-80
2022/01/04 02:30:24;;;;;;;3.50;2.30;;;14.30;81.40;;;-142.21;100.00;112049.66;4995821;28;20872;-80
2022/01/04 02:32:52;;;;;;;3.53;2.00;;;14.30;81.30;;;-142.21;100.00;112049.66;4995689;28;20497;-79
2022/01/04 02:35:23;;;;;;;2.00;1.80;;;14.40;81.20;;;-142.21;100.00;112049.66;4995185;28;21011;-79
2022/01/04 02:37:56;;;;;;;2.20;1.80;;;14.40;81.20;;;-142.21;100.00;112049.66;4995375;28;20479;-79
2022/01/04 02:40:23;;;;;;;2.13;1.93;;;14.40;81.50;;;-142.21;100.00;112049.66;4995737;28;20443;-79
2022/01/04 02:42:51;;;;;;;2.90;1.60;;;14.50;81.40;;;-142.21;100.00;112049.66;4995821;28;20459;-79
2022/01/04 02:45:19;;;;;;;3.67;2.00;;;14.60;81.20;;;-142.21;100.00;112049.66;4995401;28;20543;-79
2022/01/04 02:47:49;;;;;;;2.40;1.97;;;14.50;80.80;;;-142.21;100.00;112049.66;4995190;28;20482;-80
2022/01/04 02:50:16;;;;;;;2.97;1.87;;;14.50;81.40;;;-142.21;100.00;112049.66;4993668;28;20479;-80
2022/01/04 02:52:44;;;;;;;3.33;1.93;;;14.50;81.80;;;-142.21;100.00;112049.66;4995848;28;20482;-79
2022/01/04 02:55:16;;;;;;;2.87;2.00;;;14.50;81.00;;;-142.21;100.00;112049.66;4995410;28;20567;-79
2022/01/04 02:57:44;;;;;;;2.47;1.80;;;14.50;81.20;;;-142.21;100.00;112049.66;4995301;28;20570;-79
2022/01/04 03:00:15;;;;;;;3.10;2.10;;;14.60;80.80;;;-142.21;100.00;112049.66;4995266;28;20534;-79
2022/01/04 03:02:44;;;;;;;2.77;1.90;;;14.50;81.20;;;-142.21;100.00;112049.66;4987577;28;20486;-79
2022/01/04 03:05:11;;;;;;;2.93;2.00;;;14.50;81.20;;;-142.21;100.00;112049.66;4995535;28;20559;-80
2022/01/04 03:07:39;;;;;;;2.97;2.10;;;14.40;80.80;;;-142.21;100.00;112049.66;4995260;28;20546;-79
2022/01/04 03:10:11;;;;;;;3.93;2.23;;;14.40;81.30;;;-142.21;100.00;112049.66;4995144;28;20451;-80
2022/01/04 03:12:42;;;;;;;3.00;2.20;;;14.50;81.20;;;-142.21;100.00;112049.66;4995345;28;20459;-81
2022/01/04 03:15:10;;;;;;;3.03;2.20;;;14.40;81.40;;;-142.21;100.00;112049.66;4995152;28;20463;-79
2022/01/04 03:17:37;;;;;;;2.83;2.13;;;14.30;81.30;;;-142.21;100.00;112049.66;4994684;28;20455;-79
2022/01/04 03:20:07;;;;;;;2.30;2.10;;;14.40;81.20;;;-142.21;100.00;112049.66;4994692;28;21108;-79
2022/01/04 03:22:35;;;;;;;2.20;2.00;;;14.40;81.60;;;-142.21;100.00;112049.66;4994705;28;20539;-79
2022/01/04 03:25:09;;;;;;;2.63;2.17;;;14.40;81.30;;;-142.21;100.00;112049.66;4994141;28;20565;-83
2022/01/04 03:27:36;;;;;;;2.60;2.30;;;14.20;81.90;;;-142.21;100.00;112049.66;4994480;28;20562;-80
2022/01/04 03:30:08;;;;;;;2.63;2.10;;;14.20;82.10;;;-142.21;100.00;112049.66;4990682;28;20488;-79
2022/01/04 03:32:35;;;;;;;4.80;2.40;;;14.30;82.50;;;-142.21;100.00;112049.66;4974831;28;20872;-79
2022/01/04 03:35:03;;;;;;;3.90;2.20;;;14.20;82.80;;;-142.21;100.00;112049.66;4974831;28;20579;-79
2022/01/04 03:37:30;;;;;;;2.50;1.80;;;14.20;82.30;;;-142.21;100.00;112049.66;4974866;28;20482;-78
2022/01/04 03:39:57;;;;;;;3.37;2.23;;;14.30;82.20;;;-142.21;100.00;112049.66;4974651;28;20488;-79
2022/01/04 03:42:28;;;;;;;5.17;2.40;;;14.30;82.00;;;-142.21;100.00;112049.66;4974972;28;20479;-80
2022/01/04 03:44:55;;;;;;;3.17;2.10;;;14.20;82.70;;;-142.21;100.00;112049.66;4975543;28;20474;-80
2022/01/04 03:47:23;;;;;;;2.93;2.27;;;14.20;82.50;;;-142.21;100.00;112049.66;4975264;28;20629;-80
2022/01/04 03:49:51;;;;;;;2.93;2.37;;;14.30;82.50;;;-142.21;100.00;112049.66;4975239;28;20511;-80
2022/01/04 03:52:19;;;;;;;2.23;2.03;;;14.20;82.30;;;-142.21;100.00;112049.66;4975214;28;20483;-80
2022/01/04 03:54:46;;;;;;;2.47;2.10;;;14.30;82.60;;;-142.21;100.00;112049.66;4975264;28;20456;-80
2022/01/04 03:57:13;;;;;;;2.90;1.97;;;14.30;82.70;;;-142.21;100.00;112049.66;4975558;28;20507;-82
2022/01/04 03:59:41;;;;;;;2.90;2.10;;;14.30;82.70;;;-142.21;100.00;112049.66;4966591;28;20570;-80
2022/01/04 04:02:08;;;;;;;2.20;2.00;;;14.30;82.70;;;-142.21;100.00;112049.66;4975087;28;20514;-80
2022/01/04 04:04:37;;;;;;;2.73;2.10;;;14.20;83.00;;;-142.21;100.00;112049.66;4975291;28;20495;-79
2022/01/04 04:07:05;;;;;;;2.67;2.30;;;14.30;83.20;;;-142.21;100.00;112049.66;4974333;28;20498;-81
2022/01/04 04:09:34;;;;;;;4.13;2.30;;;14.20;83.60;;;-142.21;100.00;112049.66;4975327;28;20526;-79
2022/01/04 04:12:02;;;;;;;3.13;2.13;;;14.20;83.30;;;-142.21;100.00;112049.66;4974905;28;20455;-82
2022/01/04 04:14:29;;;;;;;3.03;2.20;;;14.20;83.40;;;-142.21;100.00;112049.66;4975006;28;20983;-81
2022/01/04 04:16:56;;;;;;;2.10;1.90;;;14.20;83.40;;;-142.21;100.00;112049.66;4974747;28;20483;-81
2022/01/04 04:19:24;;;;;;;2.80;2.23;;;14.20;83.60;;;-142.21;100.00;112049.66;4974890;28;20484;-79
2022/01/04 04:21:52;;;;;;;2.57;1.50;;;14.20;83.70;;;-142.21;100.00;112049.66;4974921;28;20811;-79
2022/01/04 04:24:19;;;;;;;3.43;2.23;;;14.30;83.60;;;-142.21;100.00;112049.66;4978144;28;20531;-81
2022/01/04 04:26:47;;;;;;;1.83;1.67;;;14.30;83.50;;;-142.21;100.00;112049.66;4979029;28;20499;-81
2022/01/04 04:29:14;;;;;;;2.50;1.70;;;14.10;83.80;;;-142.21;100.00;112049.66;4996064;28;20553;-81
2022/01/04 04:31:42;;;;;;;1.70;1.60;;;14.10;83.70;;;-142.21;100.00;112049.66;4998600;28;20501;-82
2022/01/04 04:34:09;;;;;;;2.33;1.77;;;14.10;83.60;;;-142.21;100.00;112049.66;4998186;28;21073;-80
2022/01/04 04:36:36;;;;;;;3.77;1.87;;;14.20;83.70;;;-142.21;100.00;112049.66;4997965;28;20478;-79
2022/01/04 04:39:05;;;;;;;1.93;1.60;;;14.10;83.80;;;-142.21;100.00;112049.66;4997688;28;21058;-80
2022/01/04 04:41:32;;;;;;;1.60;1.50;;;14.10;84.40;;;-142.21;100.00;112049.66;4997936;28;20586;-80
2022/01/04 04:44:00;;;;;;;4.13;1.80;;;14.00;84.50;;;-142.21;100.00;112049.66;4997892;28;20505;-81
2022/01/04 04:46:27;;;;;;;3.10;1.80;;;14.00;85.00;;;-142.21;100.00;112049.66;4997913;28;20479;-82
2022/01/04 04:48:54;;;;;;;2.20;1.80;;;14.00;84.50;;;-142.21;100.00;112049.66;4998027;28;20474;-80
2022/01/04 04:51:21;;;;;;;2.07;1.73;;;14.10;84.50;;;-142.21;100.00;112049.66;4998037;28;20522;-82
2022/01/04 04:53:48;;;;;;;2.13;1.50;;;14.00;84.90;;;-142.21;100.00;112049.66;4997734;28;20505;-83
2022/01/04 04:56:17;;;;;;;2.10;1.90;;;14.00;85.30;;;-142.21;100.00;112049.66;4997963;28;20550;-82
2022/01/04 04:58:44;;;;;;;2.20;1.50;;;14.00;85.50;;;-142.21;100.00;112049.66;4997642;28;20482;-83
2022/01/04 05:01:12;;;;;;;2.17;1.47;;;13.90;85.50;;;-142.21;100.00;112049.66;4998333;28;20543;-81
2022/01/04 05:03:39;;;;;;;2.77;1.90;;;13.90;86.20;;;-142.21;100.00;112049.66;4997641;28;20470;-81
2022/01/04 05:06:12;;;;;;;3.03;1.70;;;14.00;86.30;;;-142.21;100.00;112049.66;4997790;28;20497;-79
2022/01/04 05:08:46;;;;;;;2.37;1.53;;;13.90;86.60;;;-142.21;100.00;112049.66;4997228;28;20479;-80
2022/01/04 05:11:13;;;;;;;1.77;1.40;;;13.90;86.80;;;-142.21;100.00;112049.66;4997992;28;20498;-82
2022/01/04 05:13:48;;;;;;;2.60;1.40;;;13.90;86.40;;;-142.21;100.00;112049.66;4997242;28;20483;-81
2022/01/04 05:16:16;;;;;;;1.73;1.40;;;13.90;87.50;;;-142.21;100.00;112049.66;5006168;28;20550;-81
2022/01/04 05:18:50;;;;;;;1.70;1.33;;;13.90;87.50;;;-142.21;100.00;112049.66;5016723;28;20474;-81
2022/01/04 05:21:17;;;;;;;2.30;1.70;;;13.90;87.60;;;-142.21;100.00;112049.66;5016914;28;20496;-81
2022/01/04 05:23:52;;;;;;;2.17;1.50;;;13.80;88.30;;;-142.21;100.00;112049.66;5016519;28;20506;-79
2022/01/04 05:26:19;;;;;;;1.50;1.40;;;13.80;88.20;;;-142.21;100.00;112049.66;4969797;28;20470;-80
2022/01/04 05:28:54;;;;;;;1.50;1.23;;;13.90;87.40;;;-142.21;100.00;112049.66;4985182;28;20502;-82
2022/01/04 05:31:22;;;;;;;1.80;1.40;;;14.00;87.70;;;-142.21;100.00;112049.66;4997489;28;20525;-80
2022/01/04 05:33:49;;;;;;;1.87;1.40;;;14.00;87.10;;;-142.21;100.00;112049.66;4982449;28;20607;-78
2022/01/04 05:36:16;;;;;;;1.47;1.37;;;14.00;87.20;;;-142.21;100.00;112049.66;4976979;28;20486;-80
2022/01/04 05:38:50;;;;;;;2.43;1.40;;;14.10;87.40;;;-142.21;100.00;112049.66;4977696;28;20510;-84
2022/01/04 05:41:17;;;;;;;1.70;1.57;;;14.10;87.40;;;-142.21;100.00;112049.66;4976698;28;20480;-79
2022/01/04 05:43:50;;;;;;;3.07;1.60;;;14.10;87.10;;;-142.21;100.00;112049.66;4977238;28;20559;-79
2022/01/04 05:46:19;;;;;;;1.60;1.47;;;14.20;87.00;;;-142.21;100.00;112049.66;4976958;28;20460;-83
2022/01/04 05:48:53;;;;;;;1.70;1.40;;;14.20;86.70;;;-142.21;100.00;112049.66;4976715;28;20484;-83
2022/01/04 05:51:34;;;;;;;2.37;1.40;;;14.20;86.70;;;-142.21;100.00;112049.66;4976721;28;20476;-80
2022/01/04 05:54:01;;;;;;;1.53;1.43;;;14.20;86.90;;;-142.21;100.00;112049.66;4967864;28;20442;-79
2022/01/04 05:56:30;;;;;;;2.57;1.50;;;14.10;87.10;;;-142.21;100.00;112049.66;4996100;28;20525;-78
2022/01/04 05:58:57;;;;;;;1.90;1.57;;;14.20;87.60;;;-142.21;100.00;112049.66;4993074;28;20453;-82
2022/01/04 06:01:32;;;;;;;2.03;1.30;;;14.30;86.90;;;-142.21;100.00;112049.66;4976490;28;20480;-83
2022/01/04 06:03:59;;;;;;;1.70;1.60;;;14.30;87.20;;;-142.21;100.00;112049.66;4976913;28;20551;-80
2022/01/04 06:06:28;;;;;;;3.57;1.60;;;14.30;86.70;;;-142.21;100.00;112049.66;4979922;28;20527;-80
2022/01/04 06:09:02;;;;;;;2.10;1.50;;;14.30;86.70;;;-142.21;100.00;112049.66;4989945;28;20533;-80
2022/01/04 06:11:45;;;;;;;1.80;1.40;;;14.30;86.70;;;-142.21;100.00;112049.66;4995773;28;20564;-80
2022/01/04 06:17:09;;;;;;;1.83;1.50;;;14.20;87.30;;;-142.21;100.00;112049.66;4996342;28;20914;-81
2022/01/04 06:19:42;;;;;;;2.23;1.80;;;14.30;87.30;;;-142.21;100.00;112049.66;4990877;28;21053;-82
2022/01/04 06:22:16;;;;;;;1.83;1.40;;;14.30;87.20;;;-142.21;100.00;112049.66;4995761;28;20482;-79
2022/01/04 06:24:50;;;;;;;1.80;1.50;;;14.30;87.30;;;-142.21;100.00;112049.66;4995484;28;20834;-79
2022/01/04 06:27:24;;;;;;;2.30;1.50;;;14.30;88.00;;;-142.21;100.00;112049.66;4996144;28;20474;-80
2022/01/04 06:29:52;;;;;;;3.60;1.77;;;14.40;88.00;;;-142.21;100.00;112049.66;4995747;28;20482;-80
2022/01/04 06:32:27;;;;;;;2.80;1.80;;;14.30;88.00;;;-142.21;100.00;112049.66;4994435;28;20475;-79
2022/01/04 06:34:54;;;;;;;2.73;1.60;;;14.40;88.50;;;-142.21;100.00;112049.66;4975841;28;20511;-80
2022/01/04 06:37:28;;;;;;;1.97;1.40;;;14.50;87.50;;;-142.21;100.00;112049.66;4976128;28;20486;-80
2022/01/04 06:39:55;;;;;;;3.30;1.80;;;14.40;88.20;;;-142.21;100.00;112049.66;4975483;28;20574;-81
2022/01/04 06:42:28;;;;;;;2.67;1.63;;;14.40;87.80;;;-142.21;100.00;112049.66;4976488;28;20460;-79
2022/01/04 06:44:56;;;;;;;3.00;1.80;;;14.60;88.10;;;-142.21;100.00;112049.66;4976565;28;20503;-81
2022/01/04 06:47:31;;;;;;;1.77;1.67;;;14.50;88.20;;;-142.21;100.00;112049.66;4976419;28;20487;-81
2022/01/04 06:49:58;;;;;;;3.00;1.60;;;14.50;88.20;;;-142.21;100.00;112049.66;4976439;28;20503;-81
2022/01/04 06:52:33;;;;;;;1.90;1.60;;;14.40;88.30;;;-142.21;100.00;112049.66;4976483;28;20460;-82
2022/01/04 06:55:01;;;;;;;2.10;1.50;;;14.50;88.60;;;-142.21;100.00;112049.66;4976275;28;20554;-81
2022/01/04 06:57:34;;;;;;;2.23;1.67;;;14.60;88.30;;;-142.21;100.00;112049.66;4993226;28;20478;-82
2022/01/04 07:00:01;;;;;;;1.50;1.40;;;14.60;88.30;;;-142.21;100.00;112049.66;4995500;28;20517;-80
2022/01/04 07:02:37;;;;;;;1.67;1.57;;;14.70;88.10;;;-142.21;100.00;112049.66;4975859;28;20491;-81
2022/01/04 07:05:05;;;;;;;2.97;1.50;;;14.70;88.30;;;-142.21;100.00;112049.66;4959088;28;20555;-83
2022/01/04 07:07:39;;;;;;;1.93;1.60;;;14.70;88.50;;;-142.21;100.00;112049.66;4995322;28;20503;-82
2022/01/04 07:10:07;;;;;;;3.43;1.47;;;14.60;88.30;;;-142.21;100.00;112049.66;4995122;28;20486;-82
2022/01/04 07:12:41;;;;;;;2.80;1.30;;;14.60;88.70;;;-142.21;100.00;112049.66;4995365;28;20570;-82
2022/01/04 07:15:10;;;;;;;1.70;1.37;;;14.60;89.00;;;-142.21;100.00;112049.66;4995197;28;20447;-84
2022/01/04 07:17:44;;;;;;;2.57;1.50;;;14.60;88.70;;;-142.21;100.00;112049.66;4995154;28;20823;-82
2022/01/04 07:20:18;;;;;;;1.67;1.57;;;14.70;88.70;;;-142.21;100.00;112049.66;4995186;28;20487;-82
2022/01/04 07:22:46;;;;;;;1.93;1.70;;;14.70;88.30;;;-142.21;100.00;112049.66;4995444;28;20455;-81
2022/01/04 07:25:19;;;;;;;2.43;1.57;;;14.70;88.00;;;-142.21;100.00;112049.66;4995107;28;21014;-84
2022/01/04 07:27:46;;;;;;;1.50;1.30;;;14.70;88.30;;;-142.21;100.00;112049.66;4995612;28;20502;-82
2022/01/04 07:30:20;;;;;;;2.13;1.67;;;14.80;87.90;;;-142.21;100.00;112049.66;4992795;28;20542;-80
2022/01/04 07:32:56;;;;;;;1.73;1.43;;;14.80;88.10;;;-142.21;100.00;112049.66;4977946;28;20499;-81
2022/01/04 07:35:23;;;;;;;1.50;1.40;;;14.80;87.90;;;-142.21;100.00;112049.66;4994632;28;20494;-80
2022/01/04 07:37:51;;;;;;;1.40;1.27;;;14.90;87.60;;;-142.21;100.00;112049.66;4994835;28;20474;-82
2022/01/04 07:40:20;;;;;;;1.97;1.43;;;14.90;87.40;;;-142.21;100.00;112049.66;4994833;28;20514;-82
2022/01/04 07:42:47;;;;;;;3.33;1.63;;;14.90;87.50;;;-142.21;100.00;112049.66;4994634;28;20491;-79
2022/01/04 07:45:15;;;;;;;2.23;1.23;;;14.80;88.10;;;-142.21;100.00;112049.66;4994716;28;20478;-80
2022/01/04 07:47:44;;;;;;;2.23;1.80;;;14.90;88.30;;;-142.21;100.00;112049.66;4994481;28;20486;-82
2022/01/04 07:50:13;;;;;;;2.53;1.37;;;14.90;88.20;;;-142.21;100.00;112049.66;4994527;28;20790;-80
2022/01/04 07:52:40;;;;;;;2.40;1.60;;;14.90;88.20;;;-142.21;100.00;112049.66;4994148;28;20541;-80
2022/01/04 07:55:09;;;;;;;2.03;1.33;;;15.00;88.20;;;-142.21;100.00;112049.66;4994327;28;20463;-80
2022/01/04 07:57:36;;;;;;;1.57;1.47;;;15.00;88.80;;;-142.21;100.00;112049.66;4996837;28;20541;-82
2022/01/04 08:00:04;;;;;;;2.30;1.50;;;15.00;88.30;;;-142.21;100.00;112049.66;5014005;28;20517;-83
2022/01/04 08:02:32;;;;;;;2.33;1.37;;;15.00;88.30;;;-142.21;100.00;112049.66;5013790;28;20524;-80
2022/01/04 08:04:59;;;;;;;1.70;1.30;;;15.00;88.50;;;-142.21;100.00;112049.66;4990951;28;20458;-83
2022/01/04 08:07:28;;;;;;;1.50;1.40;;;15.00;88.40;;;-142.21;100.00;112049.66;5013769;28;20473;-84
2022/01/04 08:09:56;;;;;;;2.07;1.50;;;15.00;88.50;;;-142.21;100.00;112049.66;5013366;28;20485;-77
2022/01/04 08:12:24;;;;;;;2.03;1.50;;;15.00;88.80;;;-142.21;100.00;112049.66;5013544;28;20538;-77
2022/01/04 08:14:51;;;;;;;2.70;1.43;;;15.00;88.50;;;-142.21;100.00;112049.66;5012978;28;20481;-77
2022/01/04 08:17:51;;;;;;;2.63;1.57;;;15.10;88.50;;;-142.21;100.00;112049.66;5011473;28;20541;-79
2022/01/04 08:20:19;;;;;;;2.07;1.40;;;15.10;89.20;;;-142.21;100.00;112049.66;5012264;28;20485;-76
2022/01/04 08:22:48;;;;;;;2.60;1.80;;;15.10;88.30;;;-142.21;100.00;112049.66;5012674;28;20439;-81
2022/01/04 08:25:16;;;;;;;2.33;1.40;;;15.10;88.40;;;-142.21;100.00;112049.66;4991959;28;20459;-80
2022/01/04 08:27:44;;;;;;;3.00;1.60;;;15.20;88.30;;;-142.21;100.00;112049.66;4992105;28;20474;-80
2022/01/04 08:30:18;;;;;;;2.03;1.70;;;15.20;88.10;;;-142.21;100.00;112049.66;4992920;28;20479;-82
2022/01/04 08:32:45;;;;;;;2.03;1.50;;;15.10;88.40;;;-142.21;100.00;112049.66;4993233;28;20505;-81
2022/01/04 08:35:19;;;;;;;1.50;1.40;;;15.10;88.20;;;-142.21;100.00;112049.66;4989884;28;20486;-81
2022/01/04 08:37:48;;;;;;;2.57;1.40;;;15.10;88.40;;;-142.21;100.00;112049.66;4984220;28;20447;-81
2022/01/04 08:40:15;;;;;;;1.50;1.30;;;15.10;88.20;;;-142.21;100.00;112049.66;4984889;28;20475;-81
2022/01/04 08:42:43;;;;;;;1.33;1.23;;;15.20;88.20;;;-142.21;100.00;112049.66;4993731;28;20489;-78
2022/01/04 08:45:10;;;;;;;3.00;1.60;;;15.10;88.30;;;-142.21;100.00;112049.66;4992900;28;20439;-77
2022/01/04 08:47:39;;;;;;;3.23;1.73;;;15.10;88.40;;;-142.21;100.00;112049.66;4993290;28;20470;-78
2022/01/04 08:58:06;;;;;;;2.17;1.57;;;15.10;88.90;;;-142.21;100.00;112049.66;4883363;29;20466;-78
2022/01/04 09:01:02;;;;;;;1.60;1.50;;;15.10;89.20;;;-142.21;100.00;112049.66;4895243;29;20570;-76
2022/01/04 09:03:41;;;;;;;2.40;1.60;;;15.20;88.60;;;-142.21;100.00;112049.66;4886264;29;20460;-77
2022/01/04 09:06:21;;;;;;;4.03;1.70;;;15.20;89.00;;;-142.21;100.00;112049.66;4895444;29;20870;-76
2022/01/04 09:08:50;;;;;;;2.90;1.43;;;15.20;88.60;;;-142.21;100.00;112049.66;4895657;29;20952;-80
2022/01/04 09:11:35;;;;;;;2.40;1.53;;;15.30;88.10;;;-142.21;100.00;112049.66;4897979;29;20462;-76
2022/01/04 09:14:25;;;;;;;1.57;1.40;;;15.20;88.80;;;-142.21;100.00;112049.66;4898433;29;20440;-76
2022/01/04 09:19:39;;;;;;;2.53;1.67;;;15.10;88.80;;;-142.21;100.00;112049.66;4897455;29;20420;-79
2022/01/04 09:22:07;;;;;;;2.30;1.43;;;15.20;89.10;;;-142.21;100.00;112049.66;4898682;29;20483;-78
2022/01/04 09:24:35;;;;;;;2.10;1.60;;;15.20;88.90;;;-142.21;100.00;112049.66;4975964;28;20493;-76
2022/01/04 09:27:07;;;;;;;2.13;1.60;;;15.20;88.90;;;-142.21;100.00;112049.66;4981669;28;20460;-77
2022/01/04 09:29:39;;;;;;;2.73;1.57;;;15.20;88.90;;;-142.21;100.00;112049.66;4977168;28;20531;-80
2022/01/04 09:32:12;;;;;;;2.40;1.70;;;15.20;89.20;;;-142.21;100.00;112049.66;4976743;28;20448;-79
2022/01/04 09:35:04;;;;;;;2.43;2.00;;;15.30;88.70;;;-142.21;100.00;112049.66;4975298;28;20494;-80
2022/01/04 09:38:06;;;;;;;2.47;1.60;;;15.30;88.70;;;-142.21;100.00;112049.66;4975821;28;20956;-81
2022/01/04 09:43:09;;;;;;;2.97;1.47;;;15.20;89.30;;;-142.21;100.00;112049.66;4935100;28;20516;-79
2022/01/04 09:46:04;;;;;;;2.50;1.50;;;15.20;89.20;;;-142.21;100.00;112049.66;4941837;29;20470;-76
2022/01/04 09:48:37;;;;;;;2.37;1.53;;;15.10;89.40;;;-142.21;100.00;112049.66;4936435;29;21045;-80
2022/01/04 09:51:07;;;;;;;3.23;1.70;;;15.20;89.30;;;-142.21;100.00;112049.66;4936557;29;20442;-80
2022/01/04 09:53:36;;;;;;;3.07;1.90;;;15.20;89.30;;;-142.21;100.00;112049.66;4937085;29;20954;-78
2022/01/04 09:56:04;;;;;;;3.73;1.80;;;15.20;89.60;;;-142.21;100.00;112049.66;4936785;29;20442;-80
2022/01/04 09:58:32;;;;;;;1.83;1.60;;;15.10;89.40;;;-142.21;100.00;112049.66;4936915;29;20442;-81
2022/01/04 10:01:01;;;;;;;2.70;1.70;;;15.20;89.70;;;-142.21;100.00;112049.66;4936141;29;20540;-79
2022/01/04 10:03:36;;;;;;;2.07;1.87;;;15.20;90.00;;;-142.21;100.00;112049.66;4933872;29;20536;-80
2022/01/04 10:06:05;;;;;;;1.83;1.57;;;15.20;89.80;;;-142.21;100.00;112049.66;4932627;29;20508;-80
2022/01/04 10:08:33;;;;;;;2.67;1.70;;;15.20;89.50;;;-142.21;100.00;112049.66;4936699;29;20489;-80
2022/01/04 10:11:06;;;;;;;1.93;1.50;;;15.30;89.20;;;-142.21;100.00;112049.66;4936425;29;20506;-78
2022/01/04 10:13:34;;;;;;;3.60;1.80;;;15.30;89.20;;;-142.21;100.00;112049.66;4937249;29;20472;-79
2022/01/04 10:16:03;;;;;;;2.13;1.73;;;15.30;88.60;;;-142.21;100.00;112049.66;4917095;29;20852;-79
2022/01/04 10:18:30;;;;;;;2.07;1.57;;;15.20;88.70;;;-142.21;100.00;112049.66;4917984;29;20541;-79
2022/01/04 10:21:21;;;;;;;4.70;1.87;;;15.20;88.70;;;-142.21;100.00;112049.66;4917236;29;20504;-79